createdAt,value
2017-03-23T00:00:53.339Z,71.88
2017-03-23T00:01:48.349Z,71.97
2017-03-23T00:02:48.396Z,72.07
2017-03-23T00:03:43.371Z,72.17
2017-03-23T00:04:38.426Z,72.19
2017-03-23T00:05:38.465Z,72.28
2017-03-23T00:06:33.503Z,72.18
2017-03-23T00:07:28.544Z,72.11
2017-03-23T00:08:28.555Z,72.15
2017-03-23T00:09:23.559Z,71.87
2017-03-23T00:10:18.599Z,71.85
2017-03-23T00:11:12.649Z,71.91
2017-03-23T00:12:06.863Z,71.79
2017-03-23T00:13:07.690Z,71.64
2017-03-23T00:14:02.713Z,71.76
2017-03-23T00:14:57.757Z,71.68
2017-03-23T00:15:57.748Z,71.88
2017-03-23T00:16:52.797Z,71.98
2017-03-23T00:17:47.844Z,72.05
2017-03-23T00:18:48.842Z,72.32
2017-03-23T00:19:42.891Z,72.35
2017-03-23T00:20:36.898Z,72.55
2017-03-23T00:21:32.009Z,72.70
2017-03-23T00:22:19.977Z,72.82
2017-03-23T00:23:20.040Z,72.75
2017-03-23T00:24:14.080Z,72.81
2017-03-23T00:25:15.082Z,72.94
2017-03-23T00:26:15.057Z,72.84
2017-03-23T00:27:15.110Z,72.82
2017-03-23T00:28:09.197Z,72.86
2017-03-23T00:29:09.217Z,73.01
2017-03-23T00:29:57.187Z,73.08
2017-03-23T00:30:45.259Z,73.15
2017-03-23T00:31:40.356Z,73.31
2017-03-23T00:32:34.258Z,73.12
2017-03-23T00:33:34.342Z,73.11
2017-03-23T00:34:34.401Z,73.12
2017-03-23T00:35:22.387Z,73.17
2017-03-23T00:36:11.375Z,73.03
2017-03-23T00:37:11.406Z,72.92
2017-03-23T00:38:05.480Z,72.94
2017-03-23T00:39:05.600Z,73.01
2017-03-23T00:40:00.612Z,73.17
2017-03-23T00:40:55.608Z,73.17
2017-03-23T00:41:44.611Z,73.24
2017-03-23T00:42:44.658Z,73.25
2017-03-23T00:43:44.682Z,73.20
2017-03-23T00:44:44.696Z,73.09
2017-03-23T00:45:38.853Z,73.04
2017-03-23T00:46:38.798Z,73.03
2017-03-23T00:47:38.804Z,72.93
2017-03-23T00:48:27.802Z,72.95
2017-03-23T00:49:22.866Z,73.15
2017-03-23T00:50:17.908Z,73.18
2017-03-23T00:51:17.923Z,72.97
2017-03-23T00:52:12.934Z,72.91
2017-03-23T00:53:07.974Z,72.96
2017-03-23T00:54:08.046Z,72.92
2017-03-23T00:55:03.007Z,72.92
2017-03-23T00:55:57.038Z,72.79
2017-03-23T00:56:57.103Z,72.87
2017-03-23T00:57:57.133Z,72.96
2017-03-23T00:58:52.166Z,73.18
2017-03-23T00:59:46.192Z,73.50
2017-03-23T01:00:46.202Z,73.46
2017-03-23T01:01:46.223Z,73.56
2017-03-23T01:02:41.265Z,73.59
2017-03-23T01:03:36.316Z,73.39
2017-03-23T01:04:36.321Z,73.22
2017-03-23T01:05:30.369Z,73.32
2017-03-23T01:06:31.408Z,73.24
2017-03-23T01:07:25.388Z,73.16
2017-03-23T01:08:19.469Z,73.48
2017-03-23T01:09:13.862Z,73.60
2017-03-23T01:10:19.463Z,73.53
2017-03-23T01:11:14.459Z,73.63
2017-03-23T01:12:08.525Z,73.58
2017-03-23T01:13:08.552Z,73.36
2017-03-23T01:14:08.660Z,73.12
2017-03-23T01:15:03.662Z,73.00
2017-03-23T01:15:57.684Z,73.05
2017-03-23T01:16:57.687Z,73.15
2017-03-23T01:17:52.731Z,73.18
2017-03-23T01:18:46.823Z,73.06
2017-03-23T01:19:46.866Z,73.06
2017-03-23T01:20:34.841Z,72.94
2017-03-23T01:21:28.793Z,73.12
2017-03-23T01:22:22.875Z,73.02
2017-03-23T01:23:22.893Z,73.09
2017-03-23T01:24:22.929Z,73.10
2017-03-23T01:25:18.030Z,73.02
2017-03-23T01:26:07.007Z,72.98
2017-03-23T01:27:02.032Z,72.88
2017-03-23T01:28:02.042Z,72.66
2017-03-23T01:28:56.127Z,72.47
2017-03-23T01:29:57.096Z,72.33
2017-03-23T01:30:52.140Z,72.46
2017-03-23T01:31:47.162Z,72.51
2017-03-23T01:32:42.216Z,72.36
2017-03-23T01:33:42.226Z,72.31
2017-03-23T01:34:36.315Z,72.21
2017-03-23T01:35:42.290Z,72.14
2017-03-23T01:36:42.711Z,71.77
2017-03-23T01:37:37.353Z,71.69
2017-03-23T01:38:31.333Z,71.64
2017-03-23T01:39:19.373Z,71.90
2017-03-23T01:40:08.462Z,72.13
2017-03-23T01:41:03.510Z,72.30
2017-03-23T01:42:03.521Z,72.07
2017-03-23T01:43:03.593Z,71.94
2017-03-23T01:43:57.581Z,72.27
2017-03-23T01:44:57.556Z,72.07
2017-03-23T01:45:57.608Z,72.05
2017-03-23T01:46:51.675Z,71.78
2017-03-23T01:47:46.778Z,71.63
2017-03-23T01:48:47.685Z,71.65
2017-03-23T01:49:42.746Z,71.63
2017-03-23T01:50:36.774Z,71.74
2017-03-23T01:51:30.777Z,71.61
2017-03-23T01:52:25.775Z,71.61
2017-03-23T01:53:19.860Z,71.79
2017-03-23T01:54:20.287Z,71.71
2017-03-23T01:55:14.936Z,71.59
2017-03-23T01:56:09.940Z,71.90
2017-03-23T01:57:09.998Z,71.79
2017-03-23T01:58:03.969Z,71.72
2017-03-23T01:59:05.264Z,72.01
2017-03-23T01:59:59.090Z,71.95
2017-03-23T02:00:59.411Z,72.33
2017-03-23T02:01:54.151Z,72.22
2017-03-23T02:02:48.128Z,72.17
2017-03-23T02:03:48.196Z,72.35
2017-03-23T02:04:48.295Z,72.12
2017-03-23T02:05:43.252Z,72.27
2017-03-23T02:06:38.282Z,72.27
2017-03-23T02:07:38.280Z,72.48
2017-03-23T02:08:33.334Z,72.45
2017-03-23T02:09:28.388Z,72.63
2017-03-23T02:10:29.353Z,72.55
2017-03-23T02:11:29.411Z,72.65
2017-03-23T02:12:29.471Z,72.73
2017-03-23T02:13:23.416Z,72.67
2017-03-23T02:14:18.519Z,72.67
2017-03-23T02:15:18.525Z,72.63
2017-03-23T02:16:13.591Z,72.78
2017-03-23T02:17:08.595Z,72.84
2017-03-23T02:18:08.669Z,72.73
2017-03-23T02:18:57.677Z,72.94
2017-03-23T02:19:51.678Z,73.03
2017-03-23T02:20:51.749Z,73.06
2017-03-23T02:21:45.751Z,73.13
2017-03-23T02:22:45.752Z,73.51
2017-03-23T02:23:45.815Z,73.40
2017-03-23T02:24:33.824Z,73.50
2017-03-23T02:25:28.886Z,73.65
2017-03-23T02:26:34.897Z,73.75
2017-03-23T02:27:34.982Z,73.85
2017-03-23T02:28:28.937Z,73.97
2017-03-23T02:29:28.971Z,74.00
2017-03-23T02:30:23.367Z,74.03
2017-03-23T02:31:23.028Z,73.82
2017-03-23T02:32:18.074Z,73.90
2017-03-23T02:33:18.087Z,74.08
2017-03-23T02:34:13.167Z,74.07
2017-03-23T02:35:08.199Z,74.05
2017-03-23T02:35:57.192Z,73.90
2017-03-23T02:36:57.236Z,73.88
2017-03-23T02:37:51.257Z,74.03
2017-03-23T02:38:51.281Z,74.27
2017-03-23T02:39:46.332Z,74.32
2017-03-23T02:40:46.363Z,74.37
2017-03-23T02:41:35.378Z,74.53
2017-03-23T02:42:29.361Z,74.63
2017-03-23T02:43:29.437Z,74.72
2017-03-23T02:44:23.776Z,74.91
2017-03-23T02:45:23.874Z,75.17
2017-03-23T02:46:23.494Z,75.36
2017-03-23T02:47:18.577Z,75.37
2017-03-23T02:48:12.596Z,75.36
2017-03-23T02:49:12.632Z,75.58
2017-03-23T02:50:06.694Z,75.81
2017-03-23T02:51:06.685Z,75.98
2017-03-23T02:52:01.754Z,75.79
2017-03-23T02:53:01.746Z,75.88
2017-03-23T02:53:56.929Z,76.13
2017-03-23T02:54:50.800Z,76.12
2017-03-23T02:55:50.860Z,76.24
2017-03-23T02:56:50.851Z,76.42
2017-03-23T02:57:45.888Z,76.42
2017-03-23T02:58:40.913Z,76.44
2017-03-23T02:59:41.944Z,76.33
2017-03-23T03:00:29.962Z,76.33
2017-03-23T03:01:18.152Z,76.35
2017-03-23T03:02:19.068Z,76.43
2017-03-23T03:03:13.066Z,76.27
2017-03-23T03:04:07.112Z,76.25
2017-03-23T03:05:02.167Z,76.14
2017-03-23T03:05:56.191Z,75.86
2017-03-23T03:06:56.209Z,75.74
2017-03-23T03:07:51.279Z,75.67
2017-03-23T03:08:46.280Z,75.71
2017-03-23T03:09:46.307Z,75.67
2017-03-23T03:10:40.373Z,75.48
2017-03-23T03:11:40.387Z,75.34
2017-03-23T03:12:34.426Z,75.21
2017-03-23T03:13:29.693Z,75.09
2017-03-23T03:14:23.442Z,75.06
2017-03-23T03:15:18.505Z,75.11
2017-03-23T03:16:18.486Z,74.97
2017-03-23T03:17:18.569Z,75.09
2017-03-23T03:18:18.600Z,75.06
2017-03-23T03:19:19.590Z,75.22
2017-03-23T03:20:20.599Z,74.95
2017-03-23T03:21:14.725Z,74.78
2017-03-23T03:22:14.673Z,74.78
2017-03-23T03:23:09.691Z,74.71
2017-03-23T03:24:04.789Z,74.56
2017-03-23T03:24:58.893Z,74.40
2017-03-23T03:25:53.828Z,74.28
2017-03-23T03:26:47.839Z,74.33
2017-03-23T03:27:47.887Z,74.35
2017-03-23T03:28:42.935Z,74.50
2017-03-23T03:29:37.924Z,74.52
2017-03-23T03:30:37.957Z,74.61
2017-03-23T03:31:32.940Z,74.57
2017-03-23T03:32:28.055Z,74.54
2017-03-23T03:33:28.124Z,74.49
2017-03-23T03:34:22.119Z,74.59
2017-03-23T03:35:23.383Z,74.47
2017-03-23T03:36:23.132Z,74.33
2017-03-23T03:37:23.195Z,74.26
2017-03-23T03:38:17.186Z,74.24
2017-03-23T03:39:17.178Z,74.26
2017-03-23T03:40:12.306Z,74.38
2017-03-23T03:41:07.576Z,74.42
2017-03-23T03:42:08.289Z,74.59
2017-03-23T03:43:08.340Z,74.84
2017-03-23T03:44:08.345Z,74.69
2017-03-23T03:45:03.407Z,74.69
2017-03-23T03:45:57.422Z,74.81
2017-03-23T03:46:51.734Z,74.98
2017-03-23T03:47:46.442Z,75.00
2017-03-23T03:48:46.522Z,74.94
2017-03-23T03:49:41.506Z,74.94
2017-03-23T03:50:36.540Z,74.90
2017-03-23T03:51:36.581Z,74.82
2017-03-23T03:52:32.088Z,74.89
2017-03-23T03:53:26.678Z,74.89
2017-03-23T03:54:26.697Z,74.90
2017-03-23T03:55:15.667Z,74.94
2017-03-23T03:56:03.795Z,75.14
2017-03-23T03:57:03.808Z,75.14
2017-03-23T03:57:59.091Z,75.06
2017-03-23T03:58:53.873Z,75.16
2017-03-23T03:59:53.888Z,75.13
2017-03-23T04:00:48.285Z,75.28
2017-03-23T04:01:47.907Z,75.37
2017-03-23T04:02:48.004Z,75.37
2017-03-23T04:03:42.307Z,75.42
2017-03-23T04:04:48.002Z,75.57
2017-03-23T04:05:42.054Z,75.71
2017-03-23T04:06:42.074Z,75.63
2017-03-23T04:07:37.092Z,75.69
2017-03-23T04:08:37.376Z,75.72
2017-03-23T04:09:32.769Z,75.74
2017-03-23T04:10:21.178Z,75.74
2017-03-23T04:11:10.237Z,75.81
2017-03-23T04:12:10.262Z,75.95
2017-03-23T04:13:10.306Z,75.97
2017-03-23T04:14:04.375Z,75.92
2017-03-23T04:15:04.397Z,76.13
2017-03-23T04:15:58.372Z,76.17
2017-03-23T04:16:52.401Z,76.14
2017-03-23T04:17:52.436Z,76.03
2017-03-23T04:18:53.511Z,76.10
2017-03-23T04:19:42.496Z,76.20
2017-03-23T04:20:36.866Z,76.52
2017-03-23T04:21:36.605Z,76.35
2017-03-23T04:22:30.620Z,76.11
2017-03-23T04:23:18.576Z,76.08
2017-03-23T04:24:07.680Z,76.13
2017-03-23T04:25:02.699Z,76.01
2017-03-23T04:25:51.793Z,75.91
2017-03-23T04:26:51.743Z,75.98
2017-03-23T04:27:40.784Z,75.96
2017-03-23T04:28:28.871Z,75.95
2017-03-23T04:29:22.886Z,75.93
2017-03-23T04:30:16.938Z,75.85
2017-03-23T04:31:11.238Z,75.97
2017-03-23T04:32:06.012Z,75.85
2017-03-23T04:33:00.001Z,75.92
2017-03-23T04:34:06.034Z,76.06
2017-03-23T04:35:06.067Z,76.10
2017-03-23T04:36:06.124Z,76.20
2017-03-23T04:37:06.440Z,76.34
2017-03-23T04:38:00.157Z,76.44
2017-03-23T04:39:00.168Z,76.48
2017-03-23T04:39:55.194Z,76.53
2017-03-23T04:40:50.253Z,76.58
2017-03-23T04:41:50.309Z,76.62
2017-03-23T04:42:45.530Z,76.67
2017-03-23T04:43:40.647Z,76.77
2017-03-23T04:44:41.330Z,76.66
2017-03-23T04:45:36.381Z,76.49
2017-03-23T04:46:30.423Z,76.44
2017-03-23T04:47:30.440Z,76.49
2017-03-23T04:48:25.482Z,76.73
2017-03-23T04:49:20.490Z,76.83
2017-03-23T04:50:20.500Z,76.90
2017-03-23T04:51:15.572Z,77.02
2017-03-23T04:52:10.592Z,76.93
2017-03-23T04:52:59.634Z,76.91
2017-03-23T04:53:53.980Z,77.06
2017-03-23T04:54:42.761Z,76.94
2017-03-23T04:55:42.711Z,76.94
2017-03-23T04:56:31.767Z,76.77
2017-03-23T04:57:25.755Z,76.82
2017-03-23T04:58:25.772Z,76.80
2017-03-23T04:59:20.906Z,76.84
2017-03-23T05:00:20.876Z,76.82
2017-03-23T05:01:14.951Z,76.80
2017-03-23T05:02:09.967Z,76.80
2017-03-23T05:03:10.998Z,76.82
2017-03-23T05:04:10.985Z,76.84
2017-03-23T05:05:06.071Z,76.94
2017-03-23T05:06:06.085Z,76.92
2017-03-23T05:07:01.065Z,77.09
2017-03-23T05:07:55.076Z,77.28
2017-03-23T05:08:55.154Z,77.30
2017-03-23T05:09:49.220Z,77.38
2017-03-23T05:10:49.255Z,77.48
2017-03-23T05:11:43.290Z,77.12
2017-03-23T05:12:44.301Z,77.29
2017-03-23T05:13:33.675Z,77.36
2017-03-23T05:14:28.312Z,77.26
2017-03-23T05:15:28.382Z,77.14
2017-03-23T05:16:23.540Z,77.40
2017-03-23T05:17:17.457Z,77.54
2017-03-23T05:18:12.483Z,77.42
2017-03-23T05:19:12.544Z,77.52
2017-03-23T05:20:06.510Z,77.51
2017-03-23T05:21:07.553Z,77.54
2017-03-23T05:22:08.631Z,77.37
2017-03-23T05:23:08.676Z,77.28
2017-03-23T05:24:08.777Z,77.23
2017-03-23T05:24:57.693Z,77.25
2017-03-23T05:25:52.738Z,77.28
2017-03-23T05:26:46.843Z,77.34
2017-03-23T05:27:46.799Z,77.29
2017-03-23T05:28:41.828Z,77.32
2017-03-23T05:29:35.849Z,77.37
2017-03-23T05:30:35.884Z,77.51
2017-03-23T05:31:29.885Z,77.60
2017-03-23T05:32:30.323Z,77.62
2017-03-23T05:33:25.126Z,77.61
2017-03-23T05:34:19.010Z,77.52
2017-03-23T05:35:19.033Z,77.50
2017-03-23T05:36:13.097Z,77.35
2017-03-23T05:37:13.090Z,77.12
2017-03-23T05:38:08.154Z,77.09
2017-03-23T05:39:03.161Z,77.13
2017-03-23T05:39:51.196Z,77.07
2017-03-23T05:40:52.242Z,76.92
2017-03-23T05:41:52.274Z,76.88
2017-03-23T05:42:52.277Z,76.82
2017-03-23T05:43:52.286Z,76.80
2017-03-23T05:44:59.360Z,76.95
2017-03-23T05:46:00.387Z,77.07
2017-03-23T05:46:54.385Z,76.95
2017-03-23T05:47:43.410Z,76.97
2017-03-23T05:48:38.435Z,76.85
2017-03-23T05:49:32.525Z,76.99
2017-03-23T05:50:32.526Z,77.07
2017-03-23T05:51:32.917Z,76.93
2017-03-23T05:52:26.582Z,77.10
2017-03-23T05:53:20.655Z,77.02
2017-03-23T05:54:14.688Z,76.98
2017-03-23T05:55:10.249Z,76.96
2017-03-23T05:56:04.901Z,77.07
2017-03-23T05:57:05.736Z,77.07
2017-03-23T05:58:05.795Z,77.23
2017-03-23T05:59:00.811Z,77.30
2017-03-23T05:59:54.895Z,77.29
2017-03-23T06:00:54.873Z,77.51
2017-03-23T06:01:43.892Z,77.70
2017-03-23T06:02:39.016Z,77.67
2017-03-23T06:03:39.157Z,77.42
2017-03-23T06:04:34.056Z,77.11
2017-03-23T06:05:29.065Z,77.08
2017-03-23T06:06:18.130Z,77.10
2017-03-23T06:07:18.154Z,76.86
2017-03-23T06:08:18.145Z,76.75
2017-03-23T06:09:18.224Z,76.65
2017-03-23T06:10:12.185Z,76.50
2017-03-23T06:11:07.208Z,76.47
2017-03-23T06:12:08.277Z,76.18
2017-03-23T06:13:09.264Z,76.06
2017-03-23T06:14:09.682Z,76.03
2017-03-23T06:15:04.389Z,75.99
2017-03-23T06:16:04.387Z,76.07
2017-03-23T06:16:58.423Z,76.17
2017-03-23T06:17:53.455Z,75.97
2017-03-23T06:18:53.536Z,75.67
2017-03-23T06:19:47.520Z,75.55
2017-03-23T06:20:48.572Z,75.48
2017-03-23T06:21:48.524Z,75.28
2017-03-23T06:22:43.571Z,75.13
2017-03-23T06:23:32.680Z,75.16
2017-03-23T06:24:32.715Z,75.25
2017-03-23T06:25:32.726Z,75.17
2017-03-23T06:26:32.792Z,74.95
2017-03-23T06:27:27.780Z,75.01
2017-03-23T06:28:17.012Z,75.22
2017-03-23T06:29:11.825Z,75.10
2017-03-23T06:30:11.887Z,75.17
2017-03-23T06:31:06.882Z,75.46
2017-03-23T06:32:01.955Z,75.35
2017-03-23T06:32:50.927Z,75.15
2017-03-23T06:33:45.988Z,75.04
2017-03-23T06:34:40.167Z,74.97
2017-03-23T06:35:40.160Z,74.96
2017-03-23T06:36:40.099Z,74.87
2017-03-23T06:37:41.418Z,75.05
2017-03-23T06:38:36.177Z,74.84
2017-03-23T06:39:25.251Z,74.76
2017-03-23T06:40:20.272Z,75.07
2017-03-23T06:41:14.303Z,74.89
2017-03-23T06:42:09.361Z,74.92
2017-03-23T06:43:04.491Z,75.11
2017-03-23T06:43:58.410Z,75.43
2017-03-23T06:44:59.401Z,75.30
2017-03-23T06:45:48.587Z,75.52
2017-03-23T06:46:48.459Z,75.49
2017-03-23T06:47:48.950Z,75.31
2017-03-23T06:48:48.508Z,74.99
2017-03-23T06:49:48.639Z,75.06
2017-03-23T06:50:48.638Z,75.32
2017-03-23T06:51:42.697Z,75.43
2017-03-23T06:52:43.780Z,75.31
2017-03-23T06:53:37.730Z,75.31
2017-03-23T06:54:37.809Z,75.24
2017-03-23T06:55:32.796Z,75.28
2017-03-23T06:56:26.802Z,75.04
2017-03-23T06:57:21.140Z,74.57
2017-03-23T06:58:16.162Z,74.13
2017-03-23T06:59:10.975Z,74.10
2017-03-23T07:00:05.042Z,74.11
2017-03-23T07:01:05.049Z,73.34
2017-03-23T07:02:00.115Z,72.95
2017-03-23T07:02:55.265Z,72.69
2017-03-23T07:03:55.311Z,72.86
2017-03-23T07:04:50.101Z,73.07
2017-03-23T07:05:45.182Z,73.14
2017-03-23T07:06:39.192Z,73.02
2017-03-23T07:07:39.256Z,71.72
2017-03-23T07:08:34.293Z,71.59
2017-03-23T07:09:34.333Z,71.07
2017-03-23T07:10:34.352Z,71.05
2017-03-23T07:11:34.380Z,71.33
2017-03-23T07:12:28.425Z,70.23
2017-03-23T07:13:22.424Z,69.88
2017-03-23T07:14:17.593Z,69.62
2017-03-23T07:15:17.600Z,69.97
2017-03-23T07:16:12.540Z,70.83
2017-03-23T07:17:12.690Z,69.97
2017-03-23T07:18:07.586Z,69.76
2017-03-23T07:19:02.648Z,70.04
2017-03-23T07:19:57.142Z,70.10
2017-03-23T07:20:56.698Z,69.18
2017-03-23T07:21:56.751Z,68.24
2017-03-23T07:22:57.130Z,68.54
2017-03-23T07:23:56.787Z,67.38
2017-03-23T07:24:56.852Z,67.09
2017-03-23T07:25:56.965Z,66.14
2017-03-23T07:26:52.347Z,66.82
2017-03-23T07:27:45.977Z,68.05
2017-03-23T07:28:40.086Z,68.96
2017-03-23T07:29:40.095Z,69.12
2017-03-23T07:30:40.103Z,69.23
2017-03-23T07:31:35.179Z,69.21
2017-03-23T07:32:35.132Z,68.20
2017-03-23T07:33:30.173Z,67.41
2017-03-23T07:34:30.280Z,66.85
2017-03-23T07:35:24.620Z,66.20
2017-03-23T07:36:24.707Z,67.15
2017-03-23T07:37:19.389Z,66.36
2017-03-23T07:38:13.400Z,66.07
2017-03-23T07:39:08.455Z,66.03
2017-03-23T07:40:09.456Z,65.73
2017-03-23T07:41:09.496Z,65.55
2017-03-23T07:42:09.576Z,64.46
2017-03-23T07:43:03.595Z,64.77
2017-03-23T07:43:57.610Z,63.24
2017-03-23T07:44:57.809Z,62.81
2017-03-23T07:45:51.687Z,63.27
2017-03-23T07:46:51.767Z,64.00
2017-03-23T07:47:46.793Z,64.60
2017-03-23T07:48:46.867Z,64.69
2017-03-23T07:49:41.889Z,64.87
2017-03-23T07:50:36.909Z,64.14
2017-03-23T07:51:30.952Z,64.13
2017-03-23T07:52:25.381Z,62.76
2017-03-23T07:53:20.017Z,62.49
2017-03-23T07:54:14.078Z,62.69
2017-03-23T07:55:15.099Z,63.42
2017-03-23T07:56:10.188Z,63.86
2017-03-23T07:57:04.544Z,63.54
2017-03-23T07:57:59.472Z,63.52
2017-03-23T07:58:48.268Z,63.36
2017-03-23T07:59:48.364Z,63.45
2017-03-23T08:00:42.368Z,63.65
2017-03-23T08:01:43.402Z,63.64
2017-03-23T08:02:44.470Z,63.19
2017-03-23T08:03:39.474Z,63.69
2017-03-23T08:04:33.529Z,63.77
2017-03-23T08:05:39.598Z,65.08
2017-03-23T08:06:35.000Z,64.64
2017-03-23T08:07:30.013Z,64.91
2017-03-23T08:08:23.687Z,65.55
2017-03-23T08:09:23.732Z,65.61
2017-03-23T08:10:18.783Z,66.05
2017-03-23T08:11:07.309Z,67.30
2017-03-23T08:12:07.283Z,65.53
2017-03-23T08:13:06.882Z,64.97
2017-03-23T08:14:07.086Z,64.86
2017-03-23T08:15:02.410Z,65.35
2017-03-23T08:16:02.410Z,65.70
2017-03-23T08:16:56.103Z,66.36
2017-03-23T08:17:56.098Z,66.35
2017-03-23T08:18:51.245Z,66.54
2017-03-23T08:19:39.249Z,67.40
2017-03-23T08:20:33.253Z,65.60
2017-03-23T08:21:33.614Z,64.93
2017-03-23T08:22:33.706Z,64.72
2017-03-23T08:23:28.378Z,64.60
2017-03-23T08:24:28.405Z,64.78
2017-03-23T08:25:28.466Z,62.98
2017-03-23T08:26:23.478Z,62.38
2017-03-23T08:27:18.494Z,63.01
2017-03-23T08:28:13.612Z,63.54
2017-03-23T08:29:13.608Z,64.05
2017-03-23T08:30:09.010Z,63.37
2017-03-23T08:31:04.043Z,63.75
2017-03-23T08:31:57.737Z,63.51
2017-03-23T08:32:51.764Z,64.16
2017-03-23T08:33:46.802Z,64.52
2017-03-23T08:34:36.074Z,64.45
2017-03-23T08:35:30.907Z,63.82
2017-03-23T08:36:30.949Z,62.93
2017-03-23T08:37:25.004Z,62.03
2017-03-23T08:38:25.047Z,61.97
2017-03-23T08:39:20.083Z,62.48
2017-03-23T08:40:09.087Z,60.84
2017-03-23T08:41:04.466Z,61.16
2017-03-23T08:42:04.577Z,61.59
2017-03-23T08:42:59.270Z,62.51
2017-03-23T08:43:54.279Z,62.70
2017-03-23T08:44:48.526Z,62.41
2017-03-23T08:45:43.377Z,62.71
2017-03-23T08:46:43.813Z,62.60
2017-03-23T08:47:37.864Z,63.21
2017-03-23T08:48:32.519Z,62.37
2017-03-23T08:49:32.588Z,61.62
2017-03-23T08:50:32.598Z,61.84
2017-03-23T08:51:27.605Z,61.44
2017-03-23T08:52:21.723Z,60.41
2017-03-23T08:53:16.730Z,60.81
2017-03-23T08:54:16.796Z,59.42
2017-03-23T08:55:11.791Z,59.27
2017-03-23T08:56:05.869Z,59.03
2017-03-23T08:57:05.885Z,59.89
2017-03-23T08:58:00.921Z,60.34
2017-03-23T08:58:55.965Z,60.68
2017-03-23T08:59:56.034Z,60.21
2017-03-23T09:00:51.014Z,59.89
2017-03-23T09:01:46.113Z,60.28
2017-03-23T09:02:40.154Z,58.77
2017-03-23T09:03:40.212Z,59.62
2017-03-23T09:04:35.317Z,59.37
2017-03-23T09:05:29.324Z,59.16
2017-03-23T09:06:29.382Z,59.31
2017-03-23T09:07:23.397Z,59.56
2017-03-23T09:08:17.407Z,60.93
2017-03-23T09:09:12.726Z,60.11
2017-03-23T09:10:06.529Z,58.67
2017-03-23T09:11:06.604Z,57.51
2017-03-23T09:12:01.685Z,58.88
2017-03-23T09:12:56.693Z,57.92
2017-03-23T09:13:56.709Z,57.59
2017-03-23T09:14:46.182Z,58.27
2017-03-23T09:15:34.791Z,58.52
2017-03-23T09:16:28.901Z,59.43
2017-03-23T09:17:22.901Z,58.10
2017-03-23T09:18:18.003Z,57.46
2017-03-23T09:19:13.421Z,59.43
2017-03-23T09:20:13.471Z,58.91
2017-03-23T09:21:08.098Z,59.82
2017-03-23T09:22:02.175Z,59.23
2017-03-23T09:23:02.219Z,58.22
2017-03-23T09:24:02.283Z,58.65
2017-03-23T09:25:02.313Z,58.39
2017-03-23T09:26:02.355Z,58.97
2017-03-23T09:27:02.426Z,58.84
2017-03-23T09:28:02.403Z,59.25
2017-03-23T09:28:57.475Z,58.11
2017-03-23T09:29:51.478Z,58.34
2017-03-23T09:30:46.785Z,58.60
2017-03-23T09:31:40.621Z,58.74
2017-03-23T09:32:40.666Z,59.63
2017-03-23T09:33:35.708Z,58.91
2017-03-23T09:34:29.797Z,57.97
2017-03-23T09:35:29.814Z,57.52
2017-03-23T09:36:24.199Z,56.79
2017-03-23T09:37:11.874Z,56.52
2017-03-23T09:38:06.093Z,56.76
2017-03-23T09:39:05.990Z,55.85
2017-03-23T09:40:01.064Z,55.73
2017-03-23T09:40:55.358Z,54.87
2017-03-23T09:41:55.109Z,54.83
2017-03-23T09:42:49.399Z,55.40
2017-03-23T09:43:49.555Z,54.69
2017-03-23T09:44:44.285Z,53.58
2017-03-23T09:45:39.931Z,54.51
2017-03-23T09:46:33.400Z,54.95
2017-03-23T09:47:33.439Z,55.10
2017-03-23T09:48:28.439Z,57.23
2017-03-23T09:49:24.075Z,57.39
2017-03-23T09:50:23.525Z,57.09
2017-03-23T09:51:19.273Z,56.05
2017-03-23T09:52:13.684Z,56.92
2017-03-23T09:53:02.734Z,55.69
2017-03-23T09:54:02.796Z,55.35
2017-03-23T09:54:56.848Z,54.49
2017-03-23T09:55:51.214Z,53.87
2017-03-23T09:56:51.346Z,53.82
2017-03-23T09:57:51.347Z,54.11
2017-03-23T09:58:51.412Z,55.67
2017-03-23T09:59:40.111Z,55.20
2017-03-23T10:00:34.110Z,56.21
2017-03-23T10:01:29.255Z,56.85
2017-03-23T10:02:24.459Z,57.96
2017-03-23T10:03:19.632Z,57.64
2017-03-23T10:04:14.328Z,59.15
2017-03-23T10:05:08.416Z,60.46
2017-03-23T10:06:08.463Z,60.23
2017-03-23T10:07:08.471Z,61.29
2017-03-23T10:08:08.621Z,61.89
2017-03-23T10:09:08.581Z,60.08
2017-03-23T10:10:08.602Z,58.58
2017-03-23T10:11:02.700Z,55.87
2017-03-23T10:11:57.042Z,54.38
2017-03-23T10:12:50.918Z,53.99
2017-03-23T10:13:52.135Z,53.51
2017-03-23T10:14:46.863Z,53.90
2017-03-23T10:15:46.894Z,52.90
2017-03-23T10:16:41.965Z,54.68
2017-03-23T10:17:36.983Z,55.68
2017-03-23T10:18:37.075Z,57.58
2017-03-23T10:19:32.411Z,60.13
2017-03-23T10:20:26.434Z,62.45
2017-03-23T10:21:21.176Z,63.88
2017-03-23T10:22:22.239Z,63.86
2017-03-23T10:23:22.303Z,63.80
2017-03-23T10:24:22.302Z,64.42
2017-03-23T10:25:16.416Z,65.05
2017-03-23T10:26:16.416Z,65.65
2017-03-23T10:27:11.462Z,64.28
2017-03-23T10:28:05.472Z,63.20
2017-03-23T10:29:05.573Z,59.92
2017-03-23T10:29:53.613Z,58.20
2017-03-23T10:30:54.947Z,56.99
2017-03-23T10:31:55.805Z,57.84
2017-03-23T10:32:50.737Z,57.76
2017-03-23T10:33:44.758Z,58.30
2017-03-23T10:34:38.904Z,57.05
2017-03-23T10:35:32.903Z,56.01
2017-03-23T10:36:27.336Z,54.37
2017-03-23T10:37:27.368Z,54.94
2017-03-23T10:38:22.007Z,55.76
2017-03-23T10:39:17.122Z,53.37
2017-03-23T10:40:12.087Z,53.59
2017-03-23T10:41:13.451Z,55.51
2017-03-23T10:42:13.177Z,52.74
2017-03-23T10:43:08.310Z,52.91
2017-03-23T10:44:02.643Z,51.77
2017-03-23T10:45:02.701Z,50.95
2017-03-23T10:46:02.365Z,49.92
2017-03-23T10:47:02.772Z,50.41
2017-03-23T10:48:02.803Z,51.02
2017-03-23T10:49:02.500Z,50.53
2017-03-23T10:49:56.565Z,49.86
2017-03-23T10:50:57.647Z,51.43
2017-03-23T10:51:51.690Z,50.46
2017-03-23T10:52:51.759Z,49.07
2017-03-23T10:53:46.791Z,49.10
2017-03-23T10:54:41.816Z,51.20
2017-03-23T10:55:36.252Z,53.14
2017-03-23T10:56:36.245Z,54.81
2017-03-23T10:57:31.411Z,57.78
2017-03-23T10:58:25.017Z,59.25
2017-03-23T10:59:25.070Z,60.41
2017-03-23T11:00:19.105Z,61.69
2017-03-23T11:01:19.192Z,61.38
2017-03-23T11:02:14.244Z,61.37
2017-03-23T11:03:09.321Z,61.72
2017-03-23T11:04:09.998Z,59.78
2017-03-23T11:05:03.758Z,58.47
2017-03-23T11:06:04.605Z,58.62
2017-03-23T11:07:04.780Z,59.64
2017-03-23T11:07:52.494Z,58.60
2017-03-23T11:08:47.546Z,57.22
2017-03-23T11:09:47.875Z,55.76
2017-03-23T11:10:42.643Z,55.47
2017-03-23T11:11:36.654Z,55.00
2017-03-23T11:12:36.944Z,54.77
2017-03-23T11:13:31.780Z,54.61
2017-03-23T11:14:31.824Z,53.52
2017-03-23T11:15:26.881Z,54.64
2017-03-23T11:16:21.892Z,52.72
2017-03-23T11:17:15.895Z,52.10
2017-03-23T11:18:10.953Z,52.95
2017-03-23T11:19:06.433Z,54.03
2017-03-23T11:20:00.099Z,55.12
2017-03-23T11:21:00.100Z,54.50
2017-03-23T11:21:55.165Z,53.74
2017-03-23T11:22:50.240Z,54.11
2017-03-23T11:23:44.232Z,54.23
2017-03-23T11:24:44.258Z,56.27
2017-03-23T11:25:38.748Z,58.19
2017-03-23T11:26:38.703Z,59.56
2017-03-23T11:27:27.470Z,60.04
2017-03-23T11:28:27.522Z,60.78
2017-03-23T11:29:27.553Z,60.26
2017-03-23T11:30:27.583Z,59.37
2017-03-23T11:31:22.612Z,56.62
2017-03-23T11:32:16.951Z,55.93
2017-03-23T11:33:11.737Z,56.03
2017-03-23T11:34:12.812Z,56.23
2017-03-23T11:35:14.070Z,56.33
2017-03-23T11:36:14.205Z,54.88
2017-03-23T11:37:09.294Z,54.90
2017-03-23T11:38:09.377Z,53.50
2017-03-23T11:39:03.957Z,51.72
2017-03-23T11:39:58.982Z,51.02
2017-03-23T11:40:53.036Z,50.98
2017-03-23T11:41:48.091Z,51.27
2017-03-23T11:42:49.324Z,50.57
2017-03-23T11:43:49.131Z,50.76
2017-03-23T11:44:49.183Z,51.13
2017-03-23T11:45:43.536Z,51.30
2017-03-23T11:46:43.292Z,51.21
2017-03-23T11:47:38.358Z,52.45
2017-03-23T11:48:33.397Z,52.43
2017-03-23T11:49:27.487Z,52.66
2017-03-23T11:50:27.481Z,51.91
2017-03-23T11:51:21.514Z,51.63
2017-03-23T11:52:16.597Z,53.16
2017-03-23T11:53:11.022Z,53.64
2017-03-23T11:54:11.083Z,52.19
2017-03-23T11:55:10.809Z,51.89
2017-03-23T11:56:04.770Z,52.21
2017-03-23T11:57:05.851Z,50.26
2017-03-23T11:57:59.889Z,49.62
2017-03-23T11:58:59.947Z,52.75
2017-03-23T11:59:54.005Z,52.84
2017-03-23T12:00:48.442Z,55.76
2017-03-23T12:01:42.497Z,56.08
2017-03-23T12:02:36.115Z,55.50
2017-03-23T12:03:36.174Z,54.54
2017-03-23T12:04:31.276Z,54.16
2017-03-23T12:05:26.219Z,53.44
2017-03-23T12:06:26.319Z,52.79
2017-03-23T12:07:20.366Z,51.70